EDLW/DTM METAR and TAF weather

Enter ICAO airport designator
Station Type Date Time Source
EDLW METAR 2020/05/30 05:50 UTC NOAA

EDLW 300550Z VRB01KT CAVOK 14/04 Q1025


Station Type Date Time Source
EDLW Decoded METAR 2020/05/30 05:50 UTC NOAA

Dortmund / Wickede, Germany (EDLW) 51-31N 007-37E
May 30, 2020 - 01:50 AM EDT / 2020.05.30 0550 UTC
Wind: Variable at 1 MPH (1 KT):0
Visibility: greater than 7 mile(s):0
Temperature: 57 F (14 C)
Dew Point: 39 F (4 C)
Relative Humidity: 50%
Pressure (altimeter): 30.27 in. Hg (1025 hPa)
ob: EDLW 300550Z VRB01KT CAVOK 14/04 Q1025
cycle: 6

Station Type Date Time Source
EDLW TAF 2020/05/30 06:27 UTC NOAA

TAF TAF EDLW 300500Z 3006/3106 VRB03KT CAVOK
BECMG 3007/3010 07010KT
BECMG 3019/3021 06003KT

Example: see airport list